sensor_id;sensor_type;location;lat;lon;timestamp;temperature;humidity
22682;DHT22;11508;50.856;4.380;2024-03-02T00:01:11;6.60;95.10
22682;DHT22;11508;50.856;4.380;2024-03-02T00:03:37;6.60;98.50
22682;DHT22;11508;50.856;4.380;2024-03-02T00:06:04;6.70;98.10
22682;DHT22;11508;50.856;4.380;2024-03-02T00:08:29;6.70;97.70
22682;DHT22;11508;50.856;4.380;2024-03-02T00:10:59;6.70;96.10
22682;DHT22;11508;50.856;4.380;2024-03-02T00:13:26;6.70;93.50
22682;DHT22;11508;50.856;4.380;2024-03-02T00:15:54;6.70;93.10
22682;DHT22;11508;50.856;4.380;2024-03-02T00:18:24;6.70;90.20
22682;DHT22;11508;50.856;4.380;2024-03-02T00:20:55;6.70;79.40
22682;DHT22;11508;50.856;4.380;2024-03-02T00:23:22;6.70;63.90
22682;DHT22;11508;50.856;4.380;2024-03-02T00:25:50;6.80;49.50
22682;DHT22;11508;50.856;4.380;2024-03-02T00:33:42;6.70;18.10
22682;DHT22;11508;50.856;4.380;2024-03-02T00:36:09;6.70;12.70
22682;DHT22;11508;50.856;4.380;2024-03-02T00:38:49;6.70;12.90
22682;DHT22;11508;50.856;4.380;2024-03-02T00:41:29;6.80;9.50
22682;DHT22;11508;50.856;4.380;2024-03-02T00:44:02;6.80;6.20
22682;DHT22;11508;50.856;4.380;2024-03-02T00:46:39;6.80;11.70
22682;DHT22;11508;50.856;4.380;2024-03-02T00:49:21;6.90;3.30
22682;DHT22;11508;50.856;4.380;2024-03-02T00:51:51;6.90;7.50
22682;DHT22;11508;50.856;4.380;2024-03-02T00:54:22;6.90;3.40
22682;DHT22;11508;50.856;4.380;2024-03-02T00:56:50;7.00;1.00
22682;DHT22;11508;50.856;4.380;2024-03-02T00:59:16;6.90;1.00
22682;DHT22;11508;50.856;4.380;2024-03-02T01:01:41;6.80;1.00
22682;DHT22;11508;50.856;4.380;2024-03-02T01:04:08;6.80;1.00
22682;DHT22;11508;50.856;4.380;2024-03-02T01:06:35;6.80;1.00
22682;DHT22;11508;50.856;4.380;2024-03-02T01:09:01;6.90;1.00
22682;DHT22;11508;50.856;4.380;2024-03-02T01:11:28;6.90;1.00
22682;DHT22;11508;50.856;4.380;2024-03-02T01:13:55;7.00;1.00
22682;DHT22;11508;50.856;4.380;2024-03-02T01:16:21;7.00;1.00
22682;DHT22;11508;50.856;4.380;2024-03-02T01:18:47;7.00;1.00
22682;DHT22;11508;50.856;4.380;2024-03-02T01:21:12;7.10;1.00
22682;DHT22;11508;50.856;4.380;2024-03-02T01:23:38;7.10;1.00
22682;DHT22;11508;50.856;4.380;2024-03-02T01:26:04;7.20;1.00
22682;DHT22;11508;50.856;4.380;2024-03-02T01:28:30;7.20;1.00
22682;DHT22;11508;50.856;4.380;2024-03-02T01:30:55;7.20;1.00
22682;DHT22;11508;50.856;4.380;2024-03-02T01:33:21;7.40;1.00
22682;DHT22;11508;50.856;4.380;2024-03-02T01:35:48;7.30;99.90
22682;DHT22;11508;50.856;4.380;2024-03-02T01:38:14;7.30;99.90
22682;DHT22;11508;50.856;4.380;2024-03-02T01:40:40;7.20;99.90
22682;DHT22;11508;50.856;4.380;2024-03-02T01:43:06;7.20;99.90
22682;DHT22;11508;50.856;4.380;2024-03-02T01:45:33;7.20;99.90
22682;DHT22;11508;50.856;4.380;2024-03-02T01:47:59;7.30;99.90
22682;DHT22;11508;50.856;4.380;2024-03-02T01:50:29;7.30;99.90
22682;DHT22;11508;50.856;4.380;2024-03-02T01:52:57;7.30;99.90
22682;DHT22;11508;50.856;4.380;2024-03-02T01:55:23;7.30;99.90
22682;DHT22;11508;50.856;4.380;2024-03-02T01:57:49;7.30;99.90
22682;DHT22;11508;50.856;4.380;2024-03-02T02:00:16;7.30;99.90
22682;DHT22;11508;50.856;4.380;2024-03-02T02:02:43;7.20;99.90
22682;DHT22;11508;50.856;4.380;2024-03-02T02:05:09;7.20;99.90
22682;DHT22;11508;50.856;4.380;2024-03-02T02:07:35;7.30;99.90
22682;DHT22;11508;50.856;4.380;2024-03-02T02:10:01;7.30;99.90
22682;DHT22;11508;50.856;4.380;2024-03-02T02:12:27;7.20;99.90
22682;DHT22;11508;50.856;4.380;2024-03-02T02:14:53;7.20;99.90
22682;DHT22;11508;50.856;4.380;2024-03-02T02:17:20;7.20;25.70
22682;DHT22;11508;50.856;4.380;2024-03-02T02:19:46;7.20;14.60
22682;DHT22;11508;50.856;4.380;2024-03-02T02:22:11;7.20;1.00
22682;DHT22;11508;50.856;4.380;2024-03-02T02:24:43;7.20;1.00
22682;DHT22;11508;50.856;4.380;2024-03-02T02:27:09;7.20;1.00
22682;DHT22;11508;50.856;4.380;2024-03-02T02:29:36;7.30;1.00
22682;DHT22;11508;50.856;4.380;2024-03-02T02:32:02;7.40;99.90
22682;DHT22;11508;50.856;4.380;2024-03-02T02:34:28;7.40;1.00
22682;DHT22;11508;50.856;4.380;2024-03-02T02:36:54;7.30;1.00
22682;DHT22;11508;50.856;4.380;2024-03-02T02:39:21;7.50;1.00
22682;DHT22;11508;50.856;4.380;2024-03-02T02:41:48;7.30;99.90
22682;DHT22;11508;50.856;4.380;2024-03-02T02:44:14;7.40;99.90
22682;DHT22;11508;50.856;4.380;2024-03-02T02:46:42;7.30;1.00
22682;DHT22;11508;50.856;4.380;2024-03-02T02:49:08;7.20;1.00
22682;DHT22;11508;50.856;4.380;2024-03-02T02:51:34;7.20;3.70
22682;DHT22;11508;50.856;4.380;2024-03-02T02:54:03;7.20;1.00
22682;DHT22;11508;50.856;4.380;2024-03-02T02:56:28;7.20;1.00
22682;DHT22;11508;50.856;4.380;2024-03-02T02:58:54;7.10;1.00
22682;DHT22;11508;50.856;4.380;2024-03-02T03:01:20;7.00;1.00
22682;DHT22;11508;50.856;4.380;2024-03-02T03:03:46;6.90;4.50
22682;DHT22;11508;50.856;4.380;2024-03-02T03:06:12;6.90;54.20
22682;DHT22;11508;50.856;4.380;2024-03-02T03:08:37;7.00;73.40
22682;DHT22;11508;50.856;4.380;2024-03-02T03:11:04;6.90;99.90
22682;DHT22;11508;50.856;4.380;2024-03-02T03:13:31;6.80;99.90
22682;DHT22;11508;50.856;4.380;2024-03-02T03:15:57;6.80;99.90
22682;DHT22;11508;50.856;4.380;2024-03-02T03:18:23;6.70;99.90
22682;DHT22;11508;50.856;4.380;2024-03-02T03:20:48;6.70;99.90
22682;DHT22;11508;50.856;4.380;2024-03-02T03:23:15;6.70;99.90
22682;DHT22;11508;50.856;4.380;2024-03-02T03:25:42;6.70;99.90
22682;DHT22;11508;50.856;4.380;2024-03-02T03:28:08;6.80;99.90
22682;DHT22;11508;50.856;4.380;2024-03-02T03:30:37;6.90;99.90
22682;DHT22;11508;50.856;4.380;2024-03-02T03:33:03;6.80;99.90
22682;DHT22;11508;50.856;4.380;2024-03-02T03:35:31;6.90;99.90
22682;DHT22;11508;50.856;4.380;2024-03-02T03:37:57;7.00;99.90
22682;DHT22;11508;50.856;4.380;2024-03-02T03:40:23;6.90;99.90
22682;DHT22;11508;50.856;4.380;2024-03-02T03:42:48;6.90;99.90
22682;DHT22;11508;50.856;4.380;2024-03-02T03:45:16;7.00;99.90
22682;DHT22;11508;50.856;4.380;2024-03-02T03:47:41;7.20;99.90
22682;DHT22;11508;50.856;4.380;2024-03-02T03:50:07;7.30;61.10
22682;DHT22;11508;50.856;4.380;2024-03-02T03:52:33;7.20;1.00
22682;DHT22;11508;50.856;4.380;2024-03-02T03:54:59;7.10;65.80
22682;DHT22;11508;50.856;4.380;2024-03-02T03:57:26;7.00;99.90
22682;DHT22;11508;50.856;4.380;2024-03-02T03:59:52;7.00;99.90
22682;DHT22;11508;50.856;4.380;2024-03-02T04:02:18;7.00;77.80
22682;DHT22;11508;50.856;4.380;2024-03-02T04:04:44;6.90;99.90
22682;DHT22;11508;50.856;4.380;2024-03-02T04:07:09;6.90;99.90
22682;DHT22;11508;50.856;4.380;2024-03-02T04:09:35;7.00;95.50
22682;DHT22;11508;50.856;4.380;2024-03-02T04:12:01;7.00;1.00
22682;DHT22;11508;50.856;4.380;2024-03-02T04:14:26;7.30;1.00
22682;DHT22;11508;50.856;4.380;2024-03-02T04:16:52;7.10;1.00
22682;DHT22;11508;50.856;4.380;2024-03-02T04:19:18;7.10;1.00
22682;DHT22;11508;50.856;4.380;2024-03-02T04:21:45;7.10;1.00
22682;DHT22;11508;50.856;4.380;2024-03-02T04:24:11;7.10;1.00
22682;DHT22;11508;50.856;4.380;2024-03-02T04:26:36;7.00;1.00
22682;DHT22;11508;50.856;4.380;2024-03-02T04:29:02;7.10;1.00
22682;DHT22;11508;50.856;4.380;2024-03-02T04:31:28;7.00;99.90
22682;DHT22;11508;50.856;4.380;2024-03-02T04:33:54;7.10;1.00
22682;DHT22;11508;50.856;4.380;2024-03-02T04:36:20;7.00;99.90
22682;DHT22;11508;50.856;4.380;2024-03-02T04:38:46;7.00;99.90
22682;DHT22;11508;50.856;4.380;2024-03-02T04:41:12;6.90;99.90
22682;DHT22;11508;50.856;4.380;2024-03-02T04:43:38;7.00;1.00
22682;DHT22;11508;50.856;4.380;2024-03-02T04:46:04;7.00;99.90
22682;DHT22;11508;50.856;4.380;2024-03-02T04:48:31;7.00;99.90
22682;DHT22;11508;50.856;4.380;2024-03-02T04:50:56;7.10;99.90
22682;DHT22;11508;50.856;4.380;2024-03-02T04:53:22;7.10;99.90
22682;DHT22;11508;50.856;4.380;2024-03-02T04:55:48;7.10;1.00
22682;DHT22;11508;50.856;4.380;2024-03-02T04:58:19;7.00;43.10
22682;DHT22;11508;50.856;4.380;2024-03-02T05:00:45;7.00;1.00
22682;DHT22;11508;50.856;4.380;2024-03-02T05:03:12;6.80;99.90
22682;DHT22;11508;50.856;4.380;2024-03-02T05:05:38;6.80;99.90
22682;DHT22;11508;50.856;4.380;2024-03-02T05:08:04;6.70;99.90
22682;DHT22;11508;50.856;4.380;2024-03-02T05:10:30;6.70;99.90
22682;DHT22;11508;50.856;4.380;2024-03-02T05:12:56;6.60;99.90
22682;DHT22;11508;50.856;4.380;2024-03-02T05:15:25;6.70;1.00
22682;DHT22;11508;50.856;4.380;2024-03-02T05:17:51;6.70;99.90
22682;DHT22;11508;50.856;4.380;2024-03-02T05:20:17;6.70;99.90
22682;DHT22;11508;50.856;4.380;2024-03-02T05:22:43;6.70;99.90
22682;DHT22;11508;50.856;4.380;2024-03-02T05:25:08;6.80;99.90
22682;DHT22;11508;50.856;4.380;2024-03-02T05:27:37;6.90;14.60
22682;DHT22;11508;50.856;4.380;2024-03-02T05:30:04;7.00;99.90
22682;DHT22;11508;50.856;4.380;2024-03-02T05:32:32;6.80;99.90
22682;DHT22;11508;50.856;4.380;2024-03-02T05:34:57;6.70;99.90
22682;DHT22;11508;50.856;4.380;2024-03-02T05:37:23;6.60;1.00
22682;DHT22;11508;50.856;4.380;2024-03-02T05:39:49;6.60;1.00
22682;DHT22;11508;50.856;4.380;2024-03-02T05:42:14;6.70;1.00
22682;DHT22;11508;50.856;4.380;2024-03-02T05:44:42;6.80;99.90
22682;DHT22;11508;50.856;4.380;2024-03-02T05:47:07;6.70;99.90
22682;DHT22;11508;50.856;4.380;2024-03-02T05:49:36;6.70;1.00
22682;DHT22;11508;50.856;4.380;2024-03-02T05:52:01;6.60;99.90
22682;DHT22;11508;50.856;4.380;2024-03-02T05:54:28;6.60;99.90
22682;DHT22;11508;50.856;4.380;2024-03-02T05:56:54;6.60;99.90
22682;DHT22;11508;50.856;4.380;2024-03-02T05:59:19;6.70;99.90
22682;DHT22;11508;50.856;4.380;2024-03-02T06:01:46;6.80;99.90
22682;DHT22;11508;50.856;4.380;2024-03-02T06:04:13;6.70;1.00
22682;DHT22;11508;50.856;4.380;2024-03-02T06:06:39;6.60;1.00
22682;DHT22;11508;50.856;4.380;2024-03-02T06:09:07;6.60;1.00
22682;DHT22;11508;50.856;4.380;2024-03-02T06:11:40;6.50;60.20
22682;DHT22;11508;50.856;4.380;2024-03-02T06:14:07;6.50;99.90
22682;DHT22;11508;50.856;4.380;2024-03-02T06:16:33;6.50;99.90
22682;DHT22;11508;50.856;4.380;2024-03-02T06:18:59;6.40;1.00
22682;DHT22;11508;50.856;4.380;2024-03-02T06:21:25;6.00;1.00
22682;DHT22;11508;50.856;4.380;2024-03-02T06:23:51;6.40;1.00
22682;DHT22;11508;50.856;4.380;2024-03-02T06:26:17;6.40;1.00
22682;DHT22;11508;50.856;4.380;2024-03-02T06:28:43;6.40;97.70
22682;DHT22;11508;50.856;4.380;2024-03-02T06:31:09;6.50;99.90
22682;DHT22;11508;50.856;4.380;2024-03-02T06:33:35;6.50;1.00
22682;DHT22;11508;50.856;4.380;2024-03-02T06:36:01;6.70;1.00
22682;DHT22;11508;50.856;4.380;2024-03-02T06:38:27;6.50;99.90
22682;DHT22;11508;50.856;4.380;2024-03-02T06:40:53;6.50;1.00
22682;DHT22;11508;50.856;4.380;2024-03-02T06:43:20;6.50;99.90
22682;DHT22;11508;50.856;4.380;2024-03-02T06:45:50;6.50;99.00
22682;DHT22;11508;50.856;4.380;2024-03-02T06:48:16;6.50;31.10
22682;DHT22;11508;50.856;4.380;2024-03-02T06:50:46;6.50;95.10
22682;DHT22;11508;50.856;4.380;2024-03-02T06:53:12;6.50;1.00
22682;DHT22;11508;50.856;4.380;2024-03-02T06:55:38;6.40;40.40
22682;DHT22;11508;50.856;4.380;2024-03-02T06:58:03;6.50;99.90
22682;DHT22;11508;50.856;4.380;2024-03-02T07:00:30;6.50;99.90
22682;DHT22;11508;50.856;4.380;2024-03-02T07:03:02;6.70;99.90
22682;DHT22;11508;50.856;4.380;2024-03-02T07:05:28;6.60;99.90
22682;DHT22;11508;50.856;4.380;2024-03-02T07:07:53;6.60;99.90
22682;DHT22;11508;50.856;4.380;2024-03-02T07:10:19;6.60;99.90
22682;DHT22;11508;50.856;4.380;2024-03-02T07:12:45;6.60;99.90
22682;DHT22;11508;50.856;4.380;2024-03-02T07:15:10;6.60;99.90
22682;DHT22;11508;50.856;4.380;2024-03-02T07:17:55;6.60;99.90
22682;DHT22;11508;50.856;4.380;2024-03-02T07:20:21;6.50;1.00
22682;DHT22;11508;50.856;4.380;2024-03-02T07:22:46;6.60;99.90
22682;DHT22;11508;50.856;4.380;2024-03-02T07:25:12;6.60;1.00
22682;DHT22;11508;50.856;4.380;2024-03-02T07:27:39;6.70;99.90
22682;DHT22;11508;50.856;4.380;2024-03-02T07:30:05;6.60;99.90
22682;DHT22;11508;50.856;4.380;2024-03-02T07:32:31;6.60;99.90
22682;DHT22;11508;50.856;4.380;2024-03-02T07:34:57;6.60;99.90
22682;DHT22;11508;50.856;4.380;2024-03-02T07:37:23;6.60;1.00
22682;DHT22;11508;50.856;4.380;2024-03-02T07:39:49;6.60;1.00
22682;DHT22;11508;50.856;4.380;2024-03-02T07:42:15;6.80;99.90
22682;DHT22;11508;50.856;4.380;2024-03-02T07:44:41;6.70;99.90
22682;DHT22;11508;50.856;4.380;2024-03-02T07:47:07;6.80;99.90
22682;DHT22;11508;50.856;4.380;2024-03-02T07:49:34;6.90;99.90
22682;DHT22;11508;50.856;4.380;2024-03-02T07:52:00;6.90;9.90
22682;DHT22;11508;50.856;4.380;2024-03-02T07:54:26;6.90;99.90
22682;DHT22;11508;50.856;4.380;2024-03-02T07:56:51;7.00;1.00
22682;DHT22;11508;50.856;4.380;2024-03-02T07:59:17;7.00;99.90
22682;DHT22;11508;50.856;4.380;2024-03-02T08:01:43;7.10;99.90
22682;DHT22;11508;50.856;4.380;2024-03-02T08:04:09;7.10;1.00
22682;DHT22;11508;50.856;4.380;2024-03-02T08:06:34;7.10;18.10
22682;DHT22;11508;50.856;4.380;2024-03-02T08:09:02;7.20;1.00
22682;DHT22;11508;50.856;4.380;2024-03-02T08:11:34;7.30;99.90
22682;DHT22;11508;50.856;4.380;2024-03-02T08:14:00;7.30;1.00
22682;DHT22;11508;50.856;4.380;2024-03-02T08:16:26;7.30;99.90
22682;DHT22;11508;50.856;4.380;2024-03-02T08:18:52;7.50;1.00
22682;DHT22;11508;50.856;4.380;2024-03-02T08:21:19;7.60;95.40
22682;DHT22;11508;50.856;4.380;2024-03-02T08:23:45;7.60;67.10
22682;DHT22;11508;50.856;4.380;2024-03-02T08:26:11;7.50;1.00
22682;DHT22;11508;50.856;4.380;2024-03-02T08:28:37;7.60;1.00
22682;DHT22;11508;50.856;4.380;2024-03-02T08:31:04;7.80;99.90
22682;DHT22;11508;50.856;4.380;2024-03-02T08:33:29;7.80;99.90
22682;DHT22;11508;50.856;4.380;2024-03-02T08:35:55;7.90;99.90
22682;DHT22;11508;50.856;4.380;2024-03-02T08:38:22;7.90;1.00
22682;DHT22;11508;50.856;4.380;2024-03-02T08:40:48;7.90;1.00
22682;DHT22;11508;50.856;4.380;2024-03-02T08:43:14;7.90;99.90
22682;DHT22;11508;50.856;4.380;2024-03-02T08:45:41;8.00;99.90
22682;DHT22;11508;50.856;4.380;2024-03-02T08:48:10;8.10;99.90
22682;DHT22;11508;50.856;4.380;2024-03-02T08:50:35;8.20;99.90
22682;DHT22;11508;50.856;4.380;2024-03-02T08:53:05;8.30;79.60
22682;DHT22;11508;50.856;4.380;2024-03-02T08:55:30;8.40;99.90
22682;DHT22;11508;50.856;4.380;2024-03-02T08:57:56;8.50;99.90
22682;DHT22;11508;50.856;4.380;2024-03-02T09:00:23;8.70;99.90
22682;DHT22;11508;50.856;4.380;2024-03-02T09:02:49;8.80;1.00
22682;DHT22;11508;50.856;4.380;2024-03-02T09:05:15;8.80;1.00
22682;DHT22;11508;50.856;4.380;2024-03-02T09:07:41;8.70;99.90
22682;DHT22;11508;50.856;4.380;2024-03-02T09:10:07;8.80;99.90
22682;DHT22;11508;50.856;4.380;2024-03-02T09:12:34;8.80;90.90
22682;DHT22;11508;50.856;4.380;2024-03-02T09:15:03;8.80;99.90
22682;DHT22;11508;50.856;4.380;2024-03-02T09:17:29;8.80;1.00
22682;DHT22;11508;50.856;4.380;2024-03-02T09:19:55;8.90;1.00
22682;DHT22;11508;50.856;4.380;2024-03-02T09:22:21;9.00;1.00
22682;DHT22;11508;50.856;4.380;2024-03-02T09:24:47;9.00;1.00
22682;DHT22;11508;50.856;4.380;2024-03-02T09:27:13;9.10;99.90
22682;DHT22;11508;50.856;4.380;2024-03-02T09:29:38;9.10;99.90
22682;DHT22;11508;50.856;4.380;2024-03-02T09:32:05;9.10;99.90
22682;DHT22;11508;50.856;4.380;2024-03-02T09:34:32;9.30;99.90
22682;DHT22;11508;50.856;4.380;2024-03-02T09:36:58;9.60;99.90
22682;DHT22;11508;50.856;4.380;2024-03-02T09:39:24;9.60;99.90
22682;DHT22;11508;50.856;4.380;2024-03-02T09:41:51;9.50;99.90
22682;DHT22;11508;50.856;4.380;2024-03-02T09:44:17;9.50;99.90
22682;DHT22;11508;50.856;4.380;2024-03-02T09:46:43;9.50;99.90
22682;DHT22;11508;50.856;4.380;2024-03-02T09:49:10;9.60;99.90
22682;DHT22;11508;50.856;4.380;2024-03-02T09:51:37;9.90;99.90
22682;DHT22;11508;50.856;4.380;2024-03-02T09:54:05;9.80;99.90
22682;DHT22;11508;50.856;4.380;2024-03-02T09:56:32;10.00;99.90
22682;DHT22;11508;50.856;4.380;2024-03-02T09:58:58;10.00;99.90
22682;DHT22;11508;50.856;4.380;2024-03-02T10:01:24;10.20;99.90
22682;DHT22;11508;50.856;4.380;2024-03-02T10:03:51;10.50;99.90
22682;DHT22;11508;50.856;4.380;2024-03-02T10:06:25;10.50;99.90
22682;DHT22;11508;50.856;4.380;2024-03-02T10:15:05;10.80;99.90
22682;DHT22;11508;50.856;4.380;2024-03-02T10:17:32;10.90;99.90
22682;DHT22;11508;50.856;4.380;2024-03-02T10:19:57;11.10;99.90
22682;DHT22;11508;50.856;4.380;2024-03-02T10:22:23;11.10;99.90
22682;DHT22;11508;50.856;4.380;2024-03-02T10:24:49;11.30;93.90
22682;DHT22;11508;50.856;4.380;2024-03-02T10:27:16;11.50;83.50
22682;DHT22;11508;50.856;4.380;2024-03-02T10:29:46;11.20;80.40
22682;DHT22;11508;50.856;4.380;2024-03-02T10:32:11;11.30;91.80
22682;DHT22;11508;50.856;4.380;2024-03-02T10:34:40;11.40;72.10
22682;DHT22;11508;50.856;4.380;2024-03-02T10:37:06;11.50;72.60
22682;DHT22;11508;50.856;4.380;2024-03-02T10:39:35;11.50;59.70
22682;DHT22;11508;50.856;4.380;2024-03-02T10:42:02;11.70;48.30
22682;DHT22;11508;50.856;4.380;2024-03-02T10:44:30;11.70;41.50
22682;DHT22;11508;50.856;4.380;2024-03-02T10:46:58;11.70;38.60
22682;DHT22;11508;50.856;4.380;2024-03-02T10:49:26;11.80;28.90
22682;DHT22;11508;50.856;4.380;2024-03-02T10:51:53;11.70;24.40
22682;DHT22;11508;50.856;4.380;2024-03-02T10:54:19;11.80;13.50
22682;DHT22;11508;50.856;4.380;2024-03-02T10:56:54;12.00;12.00
22682;DHT22;11508;50.856;4.380;2024-03-02T10:59:35;12.00;13.50
22682;DHT22;11508;50.856;4.380;2024-03-02T11:02:21;11.80;13.80
22682;DHT22;11508;50.856;4.380;2024-03-02T11:04:49;12.00;1.00
22682;DHT22;11508;50.856;4.380;2024-03-02T11:07:17;12.00;1.40
22682;DHT22;11508;50.856;4.380;2024-03-02T11:09:54;11.80;1.00
22682;DHT22;11508;50.856;4.380;2024-03-02T11:15:54;12.10;2.10
22682;DHT22;11508;50.856;4.380;2024-03-02T11:18:21;12.50;1.00
22682;DHT22;11508;50.856;4.380;2024-03-02T11:20:47;12.50;1.00
22682;DHT22;11508;50.856;4.380;2024-03-02T11:23:13;12.50;1.00
22682;DHT22;11508;50.856;4.380;2024-03-02T11:25:40;12.10;1.00
22682;DHT22;11508;50.856;4.380;2024-03-02T11:28:06;12.40;1.00
22682;DHT22;11508;50.856;4.380;2024-03-02T11:33:06;13.20;1.00
22682;DHT22;11508;50.856;4.380;2024-03-02T11:35:36;13.40;1.00
22682;DHT22;11508;50.856;4.380;2024-03-02T11:38:06;13.50;1.00
22682;DHT22;11508;50.856;4.380;2024-03-02T11:40:32;13.30;1.00
22682;DHT22;11508;50.856;4.380;2024-03-02T11:42:59;12.90;1.00
22682;DHT22;11508;50.856;4.380;2024-03-02T11:45:29;12.50;1.00
22682;DHT22;11508;50.856;4.380;2024-03-02T11:47:59;12.60;1.00
22682;DHT22;11508;50.856;4.380;2024-03-02T11:50:36;12.60;1.00
22682;DHT22;11508;50.856;4.380;2024-03-02T11:53:08;13.30;1.00
22682;DHT22;11508;50.856;4.380;2024-03-02T11:55:35;13.80;1.00
22682;DHT22;11508;50.856;4.380;2024-03-02T11:58:05;14.70;1.00
22682;DHT22;11508;50.856;4.380;2024-03-02T12:00:30;15.60;1.00
22682;DHT22;11508;50.856;4.380;2024-03-02T12:08:53;14.80;1.00
22682;DHT22;11508;50.856;4.380;2024-03-02T12:11:20;14.70;1.00
22682;DHT22;11508;50.856;4.380;2024-03-02T12:13:53;14.20;1.00
22682;DHT22;11508;50.856;4.380;2024-03-02T12:16:26;14.10;1.00
22682;DHT22;11508;50.856;4.380;2024-03-02T12:18:52;14.20;1.00
22682;DHT22;11508;50.856;4.380;2024-03-02T12:21:17;14.40;1.00
22682;DHT22;11508;50.856;4.380;2024-03-02T12:23:43;14.20;1.00
22682;DHT22;11508;50.856;4.380;2024-03-02T12:26:09;14.20;1.00
22682;DHT22;11508;50.856;4.380;2024-03-02T12:28:35;14.30;1.00
22682;DHT22;11508;50.856;4.380;2024-03-02T12:31:01;14.90;99.90
22682;DHT22;11508;50.856;4.380;2024-03-02T12:33:27;14.60;99.90
22682;DHT22;11508;50.856;4.380;2024-03-02T12:35:54;14.50;99.90
22682;DHT22;11508;50.856;4.380;2024-03-02T12:38:22;14.50;99.90
22682;DHT22;11508;50.856;4.380;2024-03-02T12:40:51;14.20;99.90
22682;DHT22;11508;50.856;4.380;2024-03-02T12:43:18;14.40;99.90
22682;DHT22;11508;50.856;4.380;2024-03-02T12:45:50;14.30;99.90
22682;DHT22;11508;50.856;4.380;2024-03-02T12:48:30;13.60;1.00
22682;DHT22;11508;50.856;4.380;2024-03-02T12:51:03;13.30;1.00
22682;DHT22;11508;50.856;4.380;2024-03-02T12:53:57;13.30;1.00
22682;DHT22;11508;50.856;4.380;2024-03-02T12:56:32;13.70;1.00
22682;DHT22;11508;50.856;4.380;2024-03-02T12:59:00;14.10;1.00
22682;DHT22;11508;50.856;4.380;2024-03-02T13:01:25;14.10;99.90
22682;DHT22;11508;50.856;4.380;2024-03-02T13:03:52;14.40;99.90
22682;DHT22;11508;50.856;4.380;2024-03-02T13:06:19;14.00;99.90
22682;DHT22;11508;50.856;4.380;2024-03-02T13:08:45;14.00;99.90
22682;DHT22;11508;50.856;4.380;2024-03-02T13:11:12;14.10;99.90
22682;DHT22;11508;50.856;4.380;2024-03-02T13:13:39;14.40;99.90
22682;DHT22;11508;50.856;4.380;2024-03-02T13:16:09;14.40;99.90
22682;DHT22;11508;50.856;4.380;2024-03-02T13:18:38;14.30;99.90
22682;DHT22;11508;50.856;4.380;2024-03-02T13:21:04;14.00;1.00
22682;DHT22;11508;50.856;4.380;2024-03-02T13:23:30;14.10;99.90
22682;DHT22;11508;50.856;4.380;2024-03-02T13:25:57;13.90;99.90
22682;DHT22;11508;50.856;4.380;2024-03-02T13:28:26;13.70;1.00
22682;DHT22;11508;50.856;4.380;2024-03-02T13:30:52;13.70;1.00
22682;DHT22;11508;50.856;4.380;2024-03-02T13:33:17;13.70;99.90
22682;DHT22;11508;50.856;4.380;2024-03-02T13:35:49;13.70;1.00
22682;DHT22;11508;50.856;4.380;2024-03-02T13:38:17;13.80;1.00
22682;DHT22;11508;50.856;4.380;2024-03-02T13:40:43;13.90;1.00
22682;DHT22;11508;50.856;4.380;2024-03-02T13:43:09;14.00;99.90
22682;DHT22;11508;50.856;4.380;2024-03-02T13:45:34;14.20;99.90
22682;DHT22;11508;50.856;4.380;2024-03-02T13:48:02;14.00;99.90
22682;DHT22;11508;50.856;4.380;2024-03-02T13:50:30;13.90;99.90
22682;DHT22;11508;50.856;4.380;2024-03-02T13:52:56;14.00;1.00
22682;DHT22;11508;50.856;4.380;2024-03-02T13:55:22;13.90;99.90
22682;DHT22;11508;50.856;4.380;2024-03-02T13:57:48;14.00;99.90
22682;DHT22;11508;50.856;4.380;2024-03-02T14:00:19;14.00;99.90
22682;DHT22;11508;50.856;4.380;2024-03-02T14:02:54;14.00;1.00
22682;DHT22;11508;50.856;4.380;2024-03-02T14:05:27;13.90;99.90
22682;DHT22;11508;50.856;4.380;2024-03-02T14:07:53;13.60;1.00
22682;DHT22;11508;50.856;4.380;2024-03-02T14:10:18;13.50;99.90
22682;DHT22;11508;50.856;4.380;2024-03-02T14:12:48;13.60;99.90
22682;DHT22;11508;50.856;4.380;2024-03-02T14:15:16;13.60;1.00
22682;DHT22;11508;50.856;4.380;2024-03-02T14:17:42;13.30;99.90
22682;DHT22;11508;50.856;4.380;2024-03-02T14:20:14;12.90;1.00
22682;DHT22;11508;50.856;4.380;2024-03-02T14:22:40;12.90;99.90
22682;DHT22;11508;50.856;4.380;2024-03-02T14:25:06;12.90;1.00
22682;DHT22;11508;50.856;4.380;2024-03-02T14:27:32;12.90;1.00
22682;DHT22;11508;50.856;4.380;2024-03-02T14:29:58;12.90;1.00
22682;DHT22;11508;50.856;4.380;2024-03-02T14:32:23;12.70;1.00
22682;DHT22;11508;50.856;4.380;2024-03-02T14:34:49;12.60;1.00
22682;DHT22;11508;50.856;4.380;2024-03-02T14:37:15;12.50;1.00
22682;DHT22;11508;50.856;4.380;2024-03-02T14:39:41;12.50;1.00
22682;DHT22;11508;50.856;4.380;2024-03-02T14:42:07;12.50;1.00
22682;DHT22;11508;50.856;4.380;2024-03-02T14:44:34;12.40;1.00
22682;DHT22;11508;50.856;4.380;2024-03-02T14:47:01;12.60;1.00
22682;DHT22;11508;50.856;4.380;2024-03-02T14:49:29;12.70;1.00
22682;DHT22;11508;50.856;4.380;2024-03-02T14:51:54;12.80;1.00
22682;DHT22;11508;50.856;4.380;2024-03-02T14:54:20;12.70;1.00
22682;DHT22;11508;50.856;4.380;2024-03-02T14:56:46;12.60;1.00
22682;DHT22;11508;50.856;4.380;2024-03-02T14:59:12;12.60;1.00
22682;DHT22;11508;50.856;4.380;2024-03-02T15:01:38;12.80;1.00
22682;DHT22;11508;50.856;4.380;2024-03-02T15:04:04;12.70;1.00
22682;DHT22;11508;50.856;4.380;2024-03-02T15:06:30;12.70;1.00
22682;DHT22;11508;50.856;4.380;2024-03-02T15:08:56;12.70;1.00
22682;DHT22;11508;50.856;4.380;2024-03-02T15:11:23;12.80;1.00
22682;DHT22;11508;50.856;4.380;2024-03-02T15:13:50;12.80;1.00
22682;DHT22;11508;50.856;4.380;2024-03-02T15:16:16;12.80;1.00
22682;DHT22;11508;50.856;4.380;2024-03-02T15:18:42;12.70;1.00
22682;DHT22;11508;50.856;4.380;2024-03-02T15:21:08;12.50;1.00
22682;DHT22;11508;50.856;4.380;2024-03-02T15:23:33;12.30;1.00
22682;DHT22;11508;50.856;4.380;2024-03-02T15:25:59;12.10;1.00
22682;DHT22;11508;50.856;4.380;2024-03-02T15:28:25;12.20;1.00
22682;DHT22;11508;50.856;4.380;2024-03-02T15:30:51;12.10;1.00
22682;DHT22;11508;50.856;4.380;2024-03-02T15:33:17;12.10;23.20
22682;DHT22;11508;50.856;4.380;2024-03-02T15:35:44;12.10;32.00
22682;DHT22;11508;50.856;4.380;2024-03-02T15:38:12;12.00;72.50
22682;DHT22;11508;50.856;4.380;2024-03-02T15:40:41;12.20;73.40
22682;DHT22;11508;50.856;4.380;2024-03-02T15:43:06;12.30;50.60
22682;DHT22;11508;50.856;4.380;2024-03-02T15:45:39;12.40;15.90
22682;DHT22;11508;50.856;4.380;2024-03-02T15:48:05;12.20;13.10
22682;DHT22;11508;50.856;4.380;2024-03-02T15:50:38;12.30;39.90
22682;DHT22;11508;50.856;4.380;2024-03-02T15:53:05;12.40;47.50
22682;DHT22;11508;50.856;4.380;2024-03-02T15:55:33;12.60;16.10
22682;DHT22;11508;50.856;4.380;2024-03-02T15:58:03;12.60;12.80
22682;DHT22;11508;50.856;4.380;2024-03-02T16:00:37;12.60;21.40
22682;DHT22;11508;50.856;4.380;2024-03-02T16:03:22;12.70;34.90
22682;DHT22;11508;50.856;4.380;2024-03-02T16:05:54;12.60;19.60
22682;DHT22;11508;50.856;4.380;2024-03-02T16:08:21;12.60;13.50
22682;DHT22;11508;50.856;4.380;2024-03-02T16:10:50;12.70;11.70